Time;durP1;ratioP1;P1;durP2;ratioP2;P2;SDS_P1;SDS_P2;PMS_P1;PMS_P2;Temp;Humidity;BMP_temperature;BMP_pressure;BME280_temperature;BME280_humidity;BME280_pressure;Samples;Min_cycle;Max_cycle;Signal;HPM_P1;HPM_P2
2022/10/20 00:01:21;;;;;;;2.78;1.60;;;5.80;99.90;;;;;;5000784;28;20152;-53
2022/10/20 00:03:48;;;;;;;7.55;1.58;;;5.80;99.90;;;;;;5006194;28;20075;-52
2022/10/20 00:06:17;;;;;;;1.63;1.42;;;5.70;99.90;;;;;;5002242;28;20034;-56
2022/10/20 00:08:43;;;;;;;2.97;1.40;;;5.70;99.90;;;;;;5007019;28;20512;-53
2022/10/20 00:11:10;;;;;;;2.58;1.40;;;5.80;99.90;;;;;;4996598;28;20034;-52
2022/10/20 00:13:37;;;;;;;4.60;1.70;;;5.70;99.90;;;;;;5022841;28;20399;-54
2022/10/20 00:16:03;;;;;;;1.98;1.77;;;5.70;99.90;;;;;;5003198;28;20033;-54
2022/10/20 00:18:28;;;;;;;2.42;1.30;;;5.70;99.90;;;;;;5002011;28;20022;-55
2022/10/20 00:20:54;;;;;;;1.70;1.40;;;5.70;99.90;;;;;;5005531;28;20037;-53
2022/10/20 00:23:23;;;;;;;2.60;1.80;;;5.70;99.90;;;;;;5000887;28;20493;-56
2022/10/20 00:25:58;;;;;;;1.73;1.30;;;5.70;99.90;;;;;;5007113;28;20112;-54
2022/10/20 00:28:24;;;;;;;2.10;1.45;;;5.70;99.90;;;;;;4996623;28;20318;-54
2022/10/20 00:30:54;;;;;;;2.75;1.13;;;5.70;99.90;;;;;;4999538;28;20062;-53
2022/10/20 00:33:20;;;;;;;3.67;1.20;;;5.60;99.90;;;;;;4997848;28;20022;-54
2022/10/20 00:35:45;;;;;;;5.35;1.52;;;5.70;99.90;;;;;;4991831;28;20036;-52
2022/10/20 00:38:11;;;;;;;1.30;1.10;;;5.70;99.90;;;;;;4996111;28;20053;-54
2022/10/20 00:40:36;;;;;;;1.40;1.13;;;5.60;99.90;;;;;;5000585;28;20026;-56
2022/10/20 00:43:03;;;;;;;1.42;1.27;;;5.60;99.90;;;;;;4992335;28;20041;-52
2022/10/20 00:45:28;;;;;;;5.10;1.27;;;5.60;99.90;;;;;;4998322;28;20021;-52
2022/10/20 00:48:19;;;;;;;1.63;1.23;;;5.60;99.90;;;;;;4999216;28;20705;-52
2022/10/20 00:50:53;;;;;;;1.90;1.13;;;5.60;99.90;;;;;;4996880;28;20027;-55
2022/10/20 00:53:21;;;;;;;1.20;1.00;;;5.60;99.90;;;;;;4988476;28;20050;-57
2022/10/20 00:55:51;;;;;;;2.58;1.45;;;5.60;99.90;;;;;;5002216;28;20493;-55
2022/10/20 00:58:17;;;;;;;2.08;1.23;;;5.60;99.90;;;;;;4995135;28;20076;-52
2022/10/20 01:00:44;;;;;;;1.92;1.40;;;5.60;99.90;;;;;;4997839;28;20084;-53
2022/10/20 01:03:16;;;;;;;2.38;1.30;;;5.60;99.90;;;;;;5001776;28;20033;-55
2022/10/20 01:05:41;;;;;;;1.30;1.05;;;5.60;99.90;;;;;;5001573;28;20024;-56
2022/10/20 01:08:07;;;;;;;2.42;1.48;;;5.60;99.90;;;;;;5003004;28;20034;-57
2022/10/20 01:10:43;;;;;;;1.65;1.38;;;5.60;99.90;;;;;;5003355;28;20128;-55
2022/10/20 01:13:27;;;;;;;1.35;1.25;;;5.60;99.90;;;;;;5004274;28;20105;-53
2022/10/20 01:16:09;;;;;;;1.20;1.10;;;5.60;99.90;;;;;;5003522;28;20025;-54
2022/10/20 01:19:02;;;;;;;5.07;1.38;;;5.60;99.90;;;;;;5002515;28;20387;-54
2022/10/20 01:21:45;;;;;;;2.33;1.27;;;5.60;99.90;;;;;;4997187;28;20053;-53
2022/10/20 01:24:42;;;;;;;2.40;1.20;;;5.60;99.90;;;;;;5003372;28;20534;-54
2022/10/20 01:27:26;;;;;;;3.22;1.27;;;5.60;99.90;;;;;;5006700;28;20448;-57
2022/10/20 01:30:20;;;;;;;2.45;1.23;;;5.60;99.90;;;;;;5004284;28;20022;-54
2022/10/20 01:32:48;;;;;;;1.58;1.23;;;5.70;99.90;;;;;;4999414;28;20025;-53
2022/10/20 01:35:16;;;;;;;1.42;1.33;;;5.60;99.90;;;;;;5016982;23;20057;-50
2022/10/20 01:37:59;;;;;;;1.55;0.93;;;5.60;99.90;;;;;;5018334;28;20018;-48
2022/10/20 01:40:30;;;;;;;2.17;1.20;;;5.60;99.90;;;;;;5006662;28;20022;-49
2022/10/20 01:43:00;;;;;;;2.50;1.17;;;5.60;99.90;;;;;;5011843;28;20031;-48
2022/10/20 01:45:29;;;;;;;1.63;1.27;;;5.60;99.90;;;;;;5024583;28;20181;-50
2022/10/20 01:47:58;;;;;;;4.55;1.33;;;5.60;99.90;;;;;;5021630;28;20481;-50
2022/10/20 01:50:24;;;;;;;1.48;1.10;;;5.60;99.90;;;;;;5026125;28;20472;-48
2022/10/20 01:52:55;;;;;;;1.90;1.15;;;5.60;99.90;;;;;;5022539;28;20029;-47
2022/10/20 01:55:21;;;;;;;7.97;1.52;;;5.60;99.90;;;;;;5012564;28;20938;-52
2022/10/20 01:57:54;;;;;;;1.27;1.17;;;5.60;99.90;;;;;;5021142;28;20037;-49
2022/10/20 02:00:19;;;;;;;2.63;1.40;;;5.60;99.90;;;;;;5010789;28;20427;-46
2022/10/20 02:03:10;;;;;;;3.55;1.65;;;5.60;99.90;;;;;;5017126;28;20036;-49
2022/10/20 02:05:41;;;;;;;3.10;1.13;;;5.60;99.90;;;;;;5015155;28;20025;-49
2022/10/20 02:08:31;;;;;;;4.15;1.30;;;5.60;99.90;;;;;;5022274;28;20038;-48
2022/10/20 02:11:00;;;;;;;1.67;1.45;;;5.60;99.90;;;;;;5030488;28;20065;-47
2022/10/20 02:13:28;;;;;;;1.92;1.30;;;5.60;99.90;;;;;;5032265;28;20093;-47
2022/10/20 02:15:57;;;;;;;1.50;1.40;;;5.60;99.90;;;;;;5022955;28;20019;-48
2022/10/20 02:18:37;;;;;;;1.95;1.33;;;5.60;99.90;;;;;;5023971;28;20018;-46
2022/10/20 02:21:04;;;;;;;2.38;1.45;;;5.60;99.90;;;;;;5021835;28;20491;-46
2022/10/20 02:23:36;;;;;;;4.13;1.40;;;5.50;99.90;;;;;;5025423;28;20021;-48
2022/10/20 02:26:05;;;;;;;2.00;1.23;;;5.50;99.90;;;;;;5022283;28;20083;-46
2022/10/20 02:28:34;;;;;;;3.40;1.13;;;5.50;99.90;;;;;;5038218;28;20504;-47
2022/10/20 02:31:01;;;;;;;4.40;1.10;;;5.50;99.90;;;;;;5026562;28;20033;-48
2022/10/20 02:33:27;;;;;;;2.67;1.48;;;5.50;99.90;;;;;;5018371;28;20026;-47
2022/10/20 02:35:58;;;;;;;2.78;1.50;;;5.50;99.90;;;;;;5027259;28;20569;-48
2022/10/20 02:38:24;;;;;;;1.52;1.27;;;5.50;99.90;;;;;;5019963;28;20049;-48
2022/10/20 02:40:50;;;;;;;1.92;1.20;;;5.50;99.90;;;;;;5020155;28;20053;-48
2022/10/20 02:43:16;;;;;;;1.88;1.30;;;5.50;99.90;;;;;;5024979;28;20466;-46
2022/10/20 02:45:41;;;;;;;1.50;1.40;;;5.40;99.90;;;;;;5019771;28;20018;-50
2022/10/20 02:48:10;;;;;;;2.17;1.17;;;5.40;99.90;;;;;;5027322;28;20415;-49
2022/10/20 02:50:35;;;;;;;2.20;1.92;;;5.40;99.90;;;;;;5018098;28;20034;-46
2022/10/20 02:53:02;;;;;;;4.75;1.35;;;5.40;99.90;;;;;;5021122;28;20122;-46
2022/10/20 02:55:28;;;;;;;2.03;1.25;;;5.40;99.90;;;;;;5022895;28;20105;-48
2022/10/20 02:57:53;;;;;;;2.83;1.20;;;5.30;99.90;;;;;;5020263;28;20105;-46
2022/10/20 03:00:19;;;;;;;2.35;1.48;;;5.30;99.90;;;;;;5024547;28;20504;-49
2022/10/20 03:02:46;;;;;;;1.73;1.20;;;5.30;99.90;;;;;;5012608;28;20506;-49
2022/10/20 03:05:12;;;;;;;2.40;1.30;;;5.30;99.90;;;;;;5029032;28;20112;-47
2022/10/20 03:07:38;;;;;;;3.13;1.30;;;5.30;99.90;;;;;;5021284;28;20025;-47
2022/10/20 03:10:04;;;;;;;4.95;1.52;;;5.30;99.90;;;;;;5021165;28;20034;-49
2022/10/20 03:12:30;;;;;;;2.22;1.13;;;5.30;99.90;;;;;;5023271;28;20377;-48
2022/10/20 03:14:56;;;;;;;2.33;1.50;;;5.20;99.90;;;;;;5020308;28;20041;-47
2022/10/20 03:17:21;;;;;;;2.65;1.70;;;5.20;99.90;;;;;;5023532;28;20040;-49
2022/10/20 03:19:47;;;;;;;6.15;1.48;;;5.20;99.90;;;;;;5019471;28;20461;-48
2022/10/20 03:22:12;;;;;;;2.85;1.27;;;5.20;99.90;;;;;;5026794;28;20119;-48
2022/10/20 03:24:38;;;;;;;2.13;1.20;;;5.20;99.90;;;;;;5019156;28;20034;-48
2022/10/20 03:27:03;;;;;;;1.45;1.35;;;5.20;99.90;;;;;;5021206;28;20041;-51
2022/10/20 03:29:29;;;;;;;3.05;1.58;;;5.10;99.90;;;;;;5019510;28;20500;-46
2022/10/20 03:31:54;;;;;;;2.35;1.95;;;5.10;99.90;;;;;;5019612;28;20026;-48
2022/10/20 03:34:20;;;;;;;1.90;1.63;;;5.10;99.90;;;;;;5019938;28;20124;-49
2022/10/20 03:36:46;;;;;;;2.35;1.75;;;5.10;99.90;;;;;;5020701;28;20030;-53
2022/10/20 03:39:11;;;;;;;2.65;1.92;;;5.10;99.90;;;;;;5025375;28;20595;-50
2022/10/20 03:41:37;;;;;;;1.80;1.70;;;5.10;99.90;;;;;;5018079;28;20099;-47
2022/10/20 03:44:02;;;;;;;2.90;1.92;;;5.10;99.90;;;;;;5015495;28;20117;-49
2022/10/20 03:46:28;;;;;;;2.22;1.55;;;5.10;99.90;;;;;;5015186;28;20038;-49
2022/10/20 03:48:54;;;;;;;2.15;1.80;;;5.10;99.90;;;;;;5016344;28;20113;-48
2022/10/20 03:51:20;;;;;;;5.53;2.03;;;5.00;99.90;;;;;;5020535;28;20040;-49
2022/10/20 03:53:45;;;;;;;3.40;1.60;;;5.00;99.90;;;;;;5024242;28;20494;-48
2022/10/20 03:56:15;;;;;;;1.73;1.60;;;5.00;99.90;;;;;;5021763;28;20033;-46
2022/10/20 03:58:41;;;;;;;4.70;2.10;;;5.00;99.90;;;;;;5022059;28;20129;-48
2022/10/20 04:01:08;;;;;;;2.15;1.63;;;5.00;99.90;;;;;;5021275;28;20117;-46
2022/10/20 04:03:33;;;;;;;3.42;1.65;;;5.00;99.90;;;;;;5017965;28;20080;-49
2022/10/20 04:05:59;;;;;;;1.88;1.70;;;4.90;99.90;;;;;;5024353;28;20057;-47
2022/10/20 04:08:25;;;;;;;3.42;1.80;;;4.90;99.90;;;;;;5021073;28;20052;-47
2022/10/20 04:10:50;;;;;;;3.63;2.17;;;4.90;99.90;;;;;;5020073;28;20028;-50
2022/10/20 04:13:16;;;;;;;3.95;2.17;;;4.90;99.90;;;;;;5021368;28;20029;-51
2022/10/20 04:15:41;;;;;;;3.30;2.03;;;4.90;99.90;;;;;;5021510;28;20113;-50
2022/10/20 04:18:07;;;;;;;10.25;2.22;;;4.90;99.90;;;;;;5037316;28;20041;-51
2022/10/20 04:20:32;;;;;;;2.53;1.67;;;4.90;99.90;;;;;;5021616;28;20098;-50
2022/10/20 04:22:58;;;;;;;2.88;1.70;;;4.90;99.90;;;;;;5014524;28;20045;-47
2022/10/20 04:25:23;;;;;;;5.82;2.33;;;4.90;99.90;;;;;;5039538;28;20040;-52
2022/10/20 04:27:49;;;;;;;2.10;1.75;;;4.90;99.90;;;;;;5019400;28;20025;-50
2022/10/20 04:30:14;;;;;;;2.92;1.85;;;4.90;99.90;;;;;;5021444;28;20029;-49
2022/10/20 04:32:40;;;;;;;2.13;1.80;;;4.80;99.90;;;;;;5021110;28;20067;-52
2022/10/20 04:35:06;;;;;;;6.95;2.03;;;4.80;99.90;;;;;;5019374;28;20084;-48
2022/10/20 04:37:32;;;;;;;2.33;1.92;;;4.80;99.90;;;;;;5020925;28;20025;-47
2022/10/20 04:39:57;;;;;;;3.67;2.70;;;4.80;99.90;;;;;;5021706;28;20044;-54
2022/10/20 04:42:23;;;;;;;7.38;2.90;;;4.80;99.90;;;;;;5019597;28;20105;-52
2022/10/20 04:44:49;;;;;;;2.85;2.30;;;4.80;99.90;;;;;;5022284;28;20112;-49
2022/10/20 04:47:14;;;;;;;4.47;2.40;;;4.70;99.90;;;;;;5008362;28;20030;-47
2022/10/20 04:49:40;;;;;;;2.53;2.17;;;4.70;99.90;;;;;;5014666;28;20461;-50
2022/10/20 04:52:05;;;;;;;2.78;2.50;;;4.70;99.90;;;;;;5016820;28;20490;-46
2022/10/20 04:54:31;;;;;;;3.15;2.38;;;4.70;99.90;;;;;;5021041;28;20087;-47
2022/10/20 04:56:57;;;;;;;3.25;2.25;;;4.60;99.90;;;;;;5019922;28;20039;-51
2022/10/20 04:59:23;;;;;;;4.60;2.40;;;4.70;99.90;;;;;;5020685;28;20124;-51
2022/10/20 05:01:48;;;;;;;2.75;2.38;;;4.70;99.90;;;;;;5021086;28;20038;-49
2022/10/20 05:04:20;;;;;;;2.80;2.53;;;4.70;99.90;;;;;;5017834;28;20040;-49
2022/10/20 05:06:46;;;;;;;4.93;2.83;;;4.70;99.90;;;;;;5020366;28;20391;-46
2022/10/20 05:09:11;;;;;;;4.18;2.92;;;4.70;99.90;;;;;;5014788;28;20041;-48
2022/10/20 05:11:37;;;;;;;3.97;2.75;;;4.70;99.90;;;;;;5020702;28;20036;-49
2022/10/20 05:14:03;;;;;;;4.78;3.08;;;4.70;99.90;;;;;;4997981;28;20034;-47
2022/10/20 05:16:29;;;;;;;3.80;3.45;;;4.70;99.90;;;;;;5031498;28;20037;-50
2022/10/20 05:18:56;;;;;;;3.50;3.03;;;4.70;99.90;;;;;;5020299;28;20421;-48
2022/10/20 05:21:24;;;;;;;6.55;2.95;;;4.70;99.90;;;;;;5021950;28;20082;-47
2022/10/20 05:23:58;;;;;;;5.63;3.33;;;4.70;99.90;;;;;;5018745;28;20037;-48
2022/10/20 05:26:25;;;;;;;4.20;3.45;;;4.70;99.90;;;;;;5017610;28;20092;-48
2022/10/20 05:28:51;;;;;;;4.90;3.22;;;4.70;99.90;;;;;;5018107;28;20037;-52
2022/10/20 05:31:20;;;;;;;4.05;3.35;;;4.70;99.90;;;;;;5016515;28;20036;-51
2022/10/20 05:33:50;;;;;;;4.60;3.38;;;4.70;99.90;;;;;;5017036;28;20018;-48
2022/10/20 05:36:18;;;;;;;3.50;2.90;;;4.70;99.90;;;;;;5010185;28;20131;-48
2022/10/20 05:38:44;;;;;;;4.88;3.08;;;4.70;99.90;;;;;;5039848;28;20018;-48
2022/10/20 05:41:21;;;;;;;7.35;3.33;;;4.70;99.90;;;;;;5018415;28;20034;-50
2022/10/20 05:43:48;;;;;;;5.35;3.25;;;4.70;99.90;;;;;;5017355;28;20057;-48
2022/10/20 05:46:14;;;;;;;3.75;3.20;;;4.80;99.90;;;;;;5012564;28;20048;-47
2022/10/20 05:48:40;;;;;;;12.05;3.28;;;4.70;99.90;;;;;;5020787;28;20029;-48
2022/10/20 05:51:10;;;;;;;3.33;3.05;;;4.70;99.90;;;;;;5016195;28;20034;-50
2022/10/20 05:53:37;;;;;;;5.70;2.60;;;4.80;99.90;;;;;;5011457;28;20120;-50
2022/10/20 05:56:04;;;;;;;5.10;3.20;;;4.70;99.90;;;;;;5018927;28;20024;-51
2022/10/20 05:58:29;;;;;;;2.85;2.65;;;4.80;99.90;;;;;;5020597;28;20017;-49
2022/10/20 06:01:07;;;;;;;2.88;2.42;;;4.80;99.90;;;;;;5018704;28;20082;-46
2022/10/20 06:03:33;;;;;;;3.53;2.83;;;4.80;99.90;;;;;;5018939;28;20026;-47
2022/10/20 06:06:00;;;;;;;4.55;2.85;;;4.80;99.90;;;;;;5019371;28;20560;-48
2022/10/20 06:08:29;;;;;;;3.15;2.72;;;4.90;99.90;;;;;;5019140;28;20056;-47
2022/10/20 06:10:54;;;;;;;3.72;2.92;;;4.90;99.90;;;;;;5018141;28;20489;-47
2022/10/20 06:13:20;;;;;;;6.50;3.20;;;4.90;99.90;;;;;;5019546;28;20045;-47
2022/10/20 06:15:46;;;;;;;3.70;2.75;;;5.00;99.90;;;;;;5019293;28;20044;-46
2022/10/20 06:18:12;;;;;;;3.38;2.65;;;5.00;99.90;;;;;;5019967;28;20033;-47
2022/10/20 06:20:38;;;;;;;6.70;3.67;;;5.10;99.90;;;;;;5020214;28;20025;-48
2022/10/20 06:23:03;;;;;;;16.08;3.80;;;5.10;99.90;;;;;;5019268;28;20048;-50
2022/10/20 06:25:29;;;;;;;3.72;2.72;;;5.20;99.90;;;;;;5020000;28;20119;-48
2022/10/20 06:27:55;;;;;;;6.03;3.17;;;5.20;99.90;;;;;;5016373;28;20386;-47
2022/10/20 06:30:20;;;;;;;6.72;3.40;;;5.20;99.90;;;;;;5021011;28;20061;-47
2022/10/20 06:32:46;;;;;;;3.92;2.85;;;5.30;99.90;;;;;;5020851;28;20053;-47
2022/10/20 06:35:11;;;;;;;4.72;3.20;;;5.30;99.90;;;;;;5019409;28;20133;-50
2022/10/20 06:37:37;;;;;;;8.30;3.22;;;5.40;99.90;;;;;;5020610;28;20021;-48
2022/10/20 06:40:02;;;;;;;4.45;3.30;;;5.30;99.90;;;;;;5020048;28;20385;-47
2022/10/20 06:42:28;;;;;;;6.07;3.15;;;5.40;99.90;;;;;;5021661;28;20018;-48
2022/10/20 06:44:54;;;;;;;5.15;2.92;;;5.40;99.90;;;;;;5022350;28;20076;-51
2022/10/20 06:47:20;;;;;;;4.55;2.47;;;5.50;99.90;;;;;;5019104;28;20045;-47
2022/10/20 06:49:47;;;;;;;8.30;3.00;;;5.50;99.90;;;;;;5016410;28;20079;-49
2022/10/20 06:52:13;;;;;;;5.10;3.50;;;5.60;99.90;;;;;;5022334;28;20022;-47
2022/10/20 06:54:38;;;;;;;4.82;2.92;;;5.60;99.90;;;;;;5039817;28;20024;-47
2022/10/20 06:57:04;;;;;;;3.53;2.42;;;5.70;99.90;;;;;;5021132;28;20021;-51
2022/10/20 06:59:29;;;;;;;4.57;2.50;;;5.70;99.90;;;;;;5035513;28;20075;-48
2022/10/20 07:01:55;;;;;;;6.35;3.08;;;5.80;99.90;;;;;;5013941;28;20030;-47
2022/10/20 07:04:20;;;;;;;3.40;2.38;;;5.80;99.90;;;;;;5024212;28;20033;-50
2022/10/20 07:06:46;;;;;;;3.97;2.88;;;5.90;99.90;;;;;;5016576;28;20032;-50
2022/10/20 07:09:16;;;;;;;4.80;2.88;;;5.90;99.90;;;;;;5022796;28;20195;-51
2022/10/20 07:11:42;;;;;;;3.70;2.60;;;6.00;99.90;;;;;;5024062;28;20026;-51
2022/10/20 07:14:10;;;;;;;5.70;2.90;;;6.00;99.90;;;;;;5019830;28;20115;-50
2022/10/20 07:16:35;;;;;;;3.92;2.92;;;6.00;99.90;;;;;;5023152;28;20013;-51
2022/10/20 07:19:03;;;;;;;5.78;2.70;;;6.10;99.90;;;;;;5021389;28;20104;-52
2022/10/20 07:21:30;;;;;;;3.72;2.65;;;6.10;99.90;;;;;;5023771;28;20036;-51
2022/10/20 07:23:56;;;;;;;3.78;2.75;;;6.20;99.90;;;;;;5021972;28;20045;-49
2022/10/20 07:26:32;;;;;;;3.47;2.13;;;6.30;99.90;;;;;;5018975;28;20049;-49
2022/10/20 07:28:59;;;;;;;5.18;2.85;;;6.30;99.90;;;;;;5020410;28;20034;-49
2022/10/20 07:31:27;;;;;;;8.68;2.70;;;6.40;99.90;;;;;;5013325;28;20072;-49
2022/10/20 07:33:54;;;;;;;3.53;2.53;;;6.40;99.90;;;;;;5021451;28;20033;-49
2022/10/20 07:36:25;;;;;;;3.25;2.05;;;6.50;99.90;;;;;;5044348;23;20132;-52
2022/10/20 07:38:53;;;;;;;6.65;2.45;;;6.60;99.90;;;;;;5018512;28;20117;-53
2022/10/20 07:41:19;;;;;;;3.72;2.30;;;6.60;99.90;;;;;;5023571;28;20026;-53
2022/10/20 07:43:45;;;;;;;3.72;2.00;;;6.70;99.90;;;;;;5016541;28;20496;-56
2022/10/20 07:46:12;;;;;;;2.75;2.13;;;6.70;99.90;;;;;;5022546;28;20083;-51
2022/10/20 07:48:38;;;;;;;5.25;2.30;;;6.80;99.90;;;;;;5021127;28;20510;-56
2022/10/20 07:51:24;;;;;;;4.47;2.10;;;6.80;99.90;;;;;;5021023;28;20026;-57
2022/10/20 07:53:57;;;;;;;3.08;2.35;;;6.90;99.90;;;;;;5020053;28;20017;-52
2022/10/20 07:56:23;;;;;;;5.50;2.15;;;7.00;99.90;;;;;;5022116;28;20367;-51
2022/10/20 07:58:48;;;;;;;3.08;2.13;;;7.00;99.90;;;;;;5017866;28;20023;-51
2022/10/20 08:01:14;;;;;;;3.70;2.00;;;7.10;99.90;;;;;;5023450;28;20096;-54
2022/10/20 08:03:39;;;;;;;7.50;2.33;;;7.10;99.90;;;;;;5022180;28;20033;-54
2022/10/20 08:06:05;;;;;;;2.63;2.28;;;7.20;99.90;;;;;;5019685;28;20129;-54
2022/10/20 08:08:32;;;;;;;2.25;1.90;;;7.30;99.90;;;;;;5022534;28;20064;-52
2022/10/20 08:10:57;;;;;;;3.30;2.35;;;7.30;99.90;;;;;;5012087;28;20058;-51
2022/10/20 08:13:25;;;;;;;2.45;1.95;;;7.40;99.90;;;;;;5020493;28;20380;-51
2022/10/20 08:15:50;;;;;;;4.10;2.35;;;7.50;99.90;;;;;;5018395;28;20037;-59
2022/10/20 08:18:16;;;;;;;1.70;1.60;;;7.50;99.90;;;;;;5022111;28;20032;-52
2022/10/20 08:20:41;;;;;;;6.15;2.33;;;7.60;99.90;;;;;;5022019;28;20042;-52
2022/10/20 08:23:07;;;;;;;3.05;2.13;;;7.70;99.90;;;;;;5036086;28;20053;-52
2022/10/20 08:25:33;;;;;;;3.40;1.90;;;7.80;99.90;;;;;;5014940;28;20105;-52
2022/10/20 08:27:58;;;;;;;3.55;1.80;;;7.90;99.90;;;;;;5009591;28;20034;-52
2022/10/20 08:30:24;;;;;;;4.10;1.77;;;7.90;99.90;;;;;;5009306;28;20496;-52
2022/10/20 08:32:53;;;;;;;4.88;2.38;;;8.00;99.90;;;;;;5011281;28;20075;-53
2022/10/20 08:35:20;;;;;;;2.20;2.00;;;8.00;99.90;;;;;;5005382;28;20037;-52
2022/10/20 08:37:45;;;;;;;5.40;2.08;;;8.10;99.90;;;;;;5014982;28;20475;-53
2022/10/20 08:40:21;;;;;;;5.95;2.28;;;8.10;99.90;;;;;;5016677;28;20022;-56
2022/10/20 08:42:47;;;;;;;1.88;1.63;;;8.20;99.90;;;;;;5012433;28;20029;-54
2022/10/20 08:45:16;;;;;;;7.00;1.95;;;8.30;99.90;;;;;;5022121;28;20484;-57
2022/10/20 08:47:43;;;;;;;3.17;1.60;;;8.30;99.90;;;;;;5033990;28;20037;-57
2022/10/20 08:50:12;;;;;;;2.60;2.25;;;8.40;99.90;;;;;;5022749;28;20045;-52
2022/10/20 08:52:39;;;;;;;1.85;1.65;;;8.40;99.90;;;;;;5011838;28;20112;-56
2022/10/20 08:55:06;;;;;;;2.72;1.98;;;8.50;99.90;;;;;;5023842;28;20031;-55
2022/10/20 08:57:34;;;;;;;3.33;2.10;;;8.50;99.90;;;;;;5017587;28;20334;-57
2022/10/20 09:00:18;;;;;;;3.28;2.38;;;8.60;99.90;;;;;;5023840;28;20037;-54
2022/10/20 09:02:45;;;;;;;2.65;2.08;;;8.60;99.90;;;;;;5018473;28;20022;-57
2022/10/20 09:05:13;;;;;;;2.45;1.80;;;8.70;99.90;;;;;;5024544;28;20020;-55
2022/10/20 09:07:39;;;;;;;5.53;2.03;;;8.80;99.90;;;;;;5011083;28;20026;-53
2022/10/20 09:10:23;;;;;;;3.28;1.70;;;8.90;99.90;;;;;;5017088;28;20037;-53
2022/10/20 09:12:50;;;;;;;3.55;1.77;;;8.90;99.90;;;;;;5015733;28;20022;-52
2022/10/20 09:15:17;;;;;;;1.95;1.70;;;9.00;99.90;;;;;;5017016;28;20543;-55
2022/10/20 09:17:48;;;;;;;3.78;2.22;;;9.10;99.90;;;;;;5016556;28;20385;-54
2022/10/20 09:20:20;;;;;;;12.77;2.22;;;9.20;99.90;;;;;;5019313;28;20033;-52
2022/10/20 09:22:47;;;;;;;5.55;1.77;;;9.30;99.90;;;;;;5012813;28;20241;-52
2022/10/20 09:25:16;;;;;;;1.65;1.25;;;9.30;99.90;;;;;;5015389;28;20570;-54
2022/10/20 09:27:43;;;;;;;4.32;1.67;;;9.40;99.90;;;;;;5018201;28;20035;-53
2022/10/20 09:30:32;;;;;;;2.47;1.40;;;9.50;99.90;;;;;;5019521;28;20113;-54
2022/10/20 09:32:57;;;;;;;3.15;1.67;;;9.50;99.90;;;;;;5010365;28;20030;-55
2022/10/20 09:35:25;;;;;;;3.67;1.50;;;9.60;99.90;;;;;;5018610;28;20407;-53
2022/10/20 09:38:03;;;;;;;2.75;1.50;;;9.60;99.90;;;;;;5017178;28;20115;-53
2022/10/20 09:40:30;;;;;;;1.13;1.02;;;9.60;99.90;;;;;;5018531;28;20121;-55
2022/10/20 09:43:06;;;;;;;3.20;1.50;;;9.60;99.90;;;;;;5017332;28;20033;-54
2022/10/20 09:45:33;;;;;;;4.03;1.65;;;9.70;99.90;;;;;;5015546;28;20014;-52
2022/10/20 09:48:21;;;;;;;3.28;1.38;;;9.70;99.90;;;;;;5012051;28;20040;-58
2022/10/20 09:50:50;;;;;;;2.53;1.25;;;9.80;99.90;;;;;;5017598;28;20053;-54
2022/10/20 09:53:19;;;;;;;4.05;1.60;;;9.90;99.90;;;;;;5004800;28;20009;-54
2022/10/20 09:55:47;;;;;;;7.97;1.35;;;10.00;99.90;;;;;;5019112;28;20014;-51
2022/10/20 09:58:31;;;;;;;3.00;1.85;;;10.00;99.90;;;;;;5020474;28;20014;-52
2022/10/20 10:01:01;;;;;;;2.00;1.10;;;10.10;99.90;;;;;;5019033;28;20045;-57
2022/10/20 10:03:27;;;;;;;3.33;1.38;;;10.10;99.90;;;;;;5020494;28;20041;-58
2022/10/20 10:05:58;;;;;;;3.55;1.60;;;10.10;99.90;;;;;;5021800;28;20381;-53
2022/10/20 10:08:43;;;;;;;3.25;1.60;;;10.10;99.90;;;;;;5024460;28;20029;-54
2022/10/20 10:11:18;;;;;;;4.40;1.83;;;10.20;99.90;;;;;;5022100;28;20529;-55
2022/10/20 10:13:51;;;;;;;6.35;1.40;;;10.30;99.90;;;;;;5024207;28;20384;-51
2022/10/20 10:16:19;;;;;;;1.52;1.20;;;10.30;99.90;;;;;;5022274;28;20052;-51
2022/10/20 10:18:59;;;;;;;1.95;1.38;;;10.40;99.90;;;;;;5007833;28;20076;-53
2022/10/20 10:21:25;;;;;;;2.67;1.30;;;10.50;99.90;;;;;;5024391;28;20396;-53
2022/10/20 10:23:50;;;;;;;2.35;1.17;;;10.50;99.90;;;;;;5022601;28;20025;-55
2022/10/20 10:26:41;;;;;;;3.17;1.52;;;10.50;99.90;;;;;;5020384;28;20060;-53
2022/10/20 10:29:22;;;;;;;3.03;1.70;;;10.50;99.90;;;;;;5026657;28;20514;-56
2022/10/20 10:32:10;;;;;;;3.55;1.90;;;10.50;99.90;;;;;;5009907;28;20446;-52
2022/10/20 10:35:06;;;;;;;3.10;1.70;;;10.50;99.90;;;;;;5006218;28;20073;-53
2022/10/20 10:37:33;;;;;;;2.10;1.88;;;10.60;99.90;;;;;;5013144;28;20451;-56
2022/10/20 10:40:04;;;;;;;2.22;1.77;;;10.60;99.90;;;;;;5023009;28;20038;-56
2022/10/20 10:43:02;;;;;;;2.67;1.60;;;10.70;99.90;;;;;;5023022;28;20024;-53
2022/10/20 10:45:55;;;;;;;2.40;1.65;;;10.80;99.90;;;;;;5012759;28;20026;-54
2022/10/20 10:48:23;;;;;;;1.88;1.65;;;10.90;99.90;;;;;;5009268;28;20124;-56
2022/10/20 10:50:52;;;;;;;1.77;1.13;;;10.90;99.90;;;;;;5019708;28;20401;-57
2022/10/20 10:53:39;;;;;;;4.22;1.70;;;11.00;99.90;;;;;;5023362;28;20018;-55
2022/10/20 10:56:14;;;;;;;1.80;1.70;;;11.00;99.90;;;;;;5017627;28;20089;-55
2022/10/20 10:59:03;;;;;;;2.90;1.60;;;11.10;99.90;;;;;;5016620;28;20029;-57
2022/10/20 11:01:56;;;;;;;2.03;1.73;;;11.10;99.90;;;;;;5035902;28;20033;-53
2022/10/20 11:04:40;;;;;;;3.13;1.88;;;11.10;99.90;;;;;;5023099;28;20476;-53
2022/10/20 11:07:23;;;;;;;4.75;1.80;;;11.10;99.90;;;;;;5019539;28;20096;-53
2022/10/20 11:10:14;;;;;;;2.28;2.08;;;11.20;99.90;;;;;;5016356;28;20062;-54
2022/10/20 11:12:56;;;;;;;7.43;2.55;;;11.10;99.90;;;;;;5014829;28;20026;-55
2022/10/20 11:15:21;;;;;;;1.92;1.60;;;11.10;99.90;;;;;;5008724;28;20029;-52
2022/10/20 11:17:53;;;;;;;4.43;3.65;;;11.10;99.90;;;;;;5021869;28;20022;-52
2022/10/20 11:20:43;;;;;;;3.22;1.90;;;11.00;99.90;;;;;;5009882;28;20017;-53
2022/10/20 11:23:20;;;;;;;3.92;1.92;;;11.00;99.90;;;;;;5021951;28;20669;-54
2022/10/20 11:25:54;;;;;;;6.00;1.88;;;11.00;99.90;;;;;;5023022;28;20037;-52
2022/10/20 11:28:28;;;;;;;2.70;1.85;;;11.00;99.90;;;;;;5016994;28;20021;-55
2022/10/20 11:30:59;;;;;;;2.97;1.95;;;11.00;99.90;;;;;;5021690;28;20021;-52
2022/10/20 11:33:51;;;;;;;3.67;1.60;;;11.00;99.90;;;;;;5022733;28;20025;-55
2022/10/20 11:36:20;;;;;;;2.40;1.95;;;11.10;99.90;;;;;;5009552;28;20150;-56
2022/10/20 11:38:53;;;;;;;3.33;1.70;;;11.20;99.90;;;;;;5017798;28;20021;-53
2022/10/20 11:42:00;;;;;;;6.18;2.08;;;11.20;99.90;;;;;;5009856;28;20029;-53
2022/10/20 11:44:43;;;;;;;3.03;1.83;;;11.30;99.90;;;;;;4949705;29;20148;-51
2022/10/20 11:47:14;;;;;;;1.85;1.55;;;11.30;99.90;;;;;;4950220;29;20035;-57
2022/10/20 11:49:40;;;;;;;2.30;2.10;;;11.40;99.90;;;;;;4994249;28;20116;-52
2022/10/20 11:52:12;;;;;;;3.28;2.05;;;11.50;99.90;;;;;;5019365;28;20108;-53
2022/10/20 11:55:06;;;;;;;3.25;2.60;;;11.60;99.90;;;;;;5025656;28;20033;-53
2022/10/20 11:57:41;;;;;;;4.05;1.90;;;11.60;99.90;;;;;;5009705;28;20026;-56
2022/10/20 12:00:10;;;;;;;2.85;2.47;;;11.70;99.90;;;;;;5028331;28;20034;-54
2022/10/20 12:03:07;;;;;;;3.72;2.08;;;11.80;99.90;;;;;;5014820;28;20033;-57
2022/10/20 12:06:07;;;;;;;4.43;2.60;;;11.80;99.90;;;;;;5012918;28;20047;-56
2022/10/20 12:08:44;;;;;;;2.83;2.08;;;11.90;99.90;;;;;;5016649;28;20022;-55
2022/10/20 12:11:28;;;;;;;2.85;2.17;;;11.80;99.90;;;;;;5019069;28;20060;-58
2022/10/20 12:14:15;;;;;;;3.35;2.20;;;11.80;99.90;;;;;;5018894;28;20504;-58
2022/10/20 12:16:53;;;;;;;4.57;2.47;;;11.80;99.90;;;;;;5036980;28;20025;-51
2022/10/20 12:19:24;;;;;;;2.10;1.98;;;11.90;99.90;;;;;;5018711;28;20165;-53
2022/10/20 12:22:02;;;;;;;3.03;2.72;;;11.90;99.90;;;;;;5026306;28;20013;-55
2022/10/20 12:24:37;;;;;;;2.95;2.75;;;11.90;99.90;;;;;;5017905;28;20396;-57
2022/10/20 12:27:08;;;;;;;3.78;2.47;;;12.00;99.90;;;;;;5019563;28;20030;-55
2022/10/20 12:29:34;;;;;;;2.65;2.15;;;12.00;99.90;;;;;;5020940;28;20018;-53
2022/10/20 12:32:56;;;;;;;3.55;2.90;;;12.00;99.90;;;;;;5018851;28;20034;-52
2022/10/20 12:35:21;;;;;;;5.78;3.00;;;12.00;99.90;;;;;;4987181;28;20037;-52
2022/10/20 12:37:56;;;;;;;6.00;2.50;;;12.10;99.90;;;;;;5021351;28;20017;-52
2022/10/20 12:40:50;;;;;;;4.50;2.78;;;12.10;99.90;;;;;;5018820;28;20036;-57
2022/10/20 12:43:28;;;;;;;3.72;2.78;;;12.10;99.90;;;;;;5010652;28;20121;-57
2022/10/20 12:45:58;;;;;;;4.07;2.53;;;12.20;99.90;;;;;;5016243;28;20377;-51
2022/10/20 12:48:24;;;;;;;4.40;2.85;;;12.20;99.90;;;;;;5024042;28;20037;-54
2022/10/20 12:50:51;;;;;;;6.30;3.55;;;12.20;99.90;;;;;;5013146;28;20037;-55
2022/10/20 12:53:17;;;;;;;5.50;3.08;;;12.20;99.90;;;;;;5013907;28;20056;-58
2022/10/20 12:55:57;;;;;;;2.97;2.67;;;12.20;99.90;;;;;;5019498;28;20440;-51
2022/10/20 12:58:22;;;;;;;6.70;3.90;;;12.20;99.90;;;;;;5015162;28;20021;-53
2022/10/20 13:00:50;;;;;;;4.35;2.67;;;12.20;99.90;;;;;;5020036;28;20029;-55
2022/10/20 13:03:36;;;;;;;3.90;3.03;;;12.20;99.90;;;;;;5013642;28;20071;-52
2022/10/20 13:06:21;;;;;;;3.35;2.80;;;12.30;99.90;;;;;;5019592;28;20125;-55
2022/10/20 13:09:02;;;;;;;4.10;3.22;;;12.30;99.90;;;;;;5019422;28;20404;-59
2022/10/20 13:11:32;;;;;;;3.88;2.35;;;12.30;99.90;;;;;;5009973;28;20022;-52
2022/10/20 13:14:16;;;;;;;3.42;2.85;;;12.40;99.90;;;;;;5020996;28;20029;-56